Time;durP1;ratioP1;P1;durP2;ratioP2;P2;SDS_P1;SDS_P2;PMS_P1;PMS_P2;Temp;Humidity;BMP_temperature;BMP_pressure;BME280_temperature;BME280_humidity;BME280_pressure;Samples;Min_cycle;Max_cycle;Signal;HPM_P1;HPM_P2
2023/04/12 00:00:54;;;;;;;8.32;1.60;;;5.90;99.90;;;;;;4846645;29;20046;-79
2023/04/12 00:03:21;;;;;;;5.68;1.58;;;5.90;99.90;;;;;;4861797;29;20092;-79
2023/04/12 00:05:53;;;;;;;6.13;1.52;;;6.00;99.90;;;;;;4861442;29;20129;-79
2023/04/12 00:08:25;;;;;;;4.25;1.30;;;6.00;99.90;;;;;;4862196;29;20042;-79
2023/04/12 00:10:52;;;;;;;4.07;1.42;;;6.00;99.90;;;;;;4865630;29;20056;-79
2023/04/12 00:13:18;;;;;;;8.45;2.10;;;6.00;99.90;;;;;;4895242;29;20041;-79
2023/04/12 00:15:45;;;;;;;7.78;1.80;;;6.10;99.90;;;;;;4864309;29;20053;-79
2023/04/12 00:18:12;;;;;;;5.90;1.90;;;6.10;99.90;;;;;;4864587;29;20041;-79
2023/04/12 00:20:39;;;;;;;7.97;1.52;;;6.10;99.90;;;;;;4861103;29;20050;-79
2023/04/12 00:23:05;;;;;;;5.57;1.40;;;6.10;99.90;;;;;;4861608;29;20589;-79
2023/04/12 00:25:32;;;;;;;8.52;1.83;;;6.10;99.90;;;;;;4861440;29;20049;-79
2023/04/12 00:27:59;;;;;;;5.28;1.75;;;6.10;99.90;;;;;;4877986;29;20050;-79
2023/04/12 00:30:27;;;;;;;7.13;1.65;;;6.20;99.90;;;;;;4864389;29;20045;-79
2023/04/12 00:32:53;;;;;;;4.68;1.50;;;6.20;99.90;;;;;;4864786;29;20045;-79
2023/04/12 00:35:20;;;;;;;4.28;1.15;;;6.20;99.90;;;;;;4864435;29;20044;-79
2023/04/12 00:37:47;;;;;;;6.82;1.52;;;6.20;99.90;;;;;;4894958;29;20045;-79
2023/04/12 00:40:13;;;;;;;4.50;1.50;;;6.20;99.90;;;;;;4864358;29;20049;-79
2023/04/12 00:42:40;;;;;;;9.10;1.27;;;6.20;99.90;;;;;;4879328;29;20422;-79
2023/04/12 00:45:08;;;;;;;10.98;1.67;;;6.30;99.90;;;;;;4879299;29;20049;-79
2023/04/12 00:47:36;;;;;;;6.53;1.92;;;6.30;99.90;;;;;;4894518;29;20057;-79
2023/04/12 00:50:04;;;;;;;7.22;2.50;;;6.30;99.90;;;;;;4894883;29;20064;-79
2023/04/12 00:52:36;;;;;;;5.60;1.65;;;6.30;99.90;;;;;;4894765;29;20053;-79
2023/04/12 00:55:04;;;;;;;7.88;1.70;;;6.30;99.90;;;;;;4879491;29;20045;-79
2023/04/12 00:57:35;;;;;;;8.25;2.05;;;6.30;99.90;;;;;;4864082;29;20041;-79
2023/04/12 01:00:12;;;;;;;6.13;1.77;;;6.40;99.90;;;;;;4879343;29;20590;-79
2023/04/12 01:02:45;;;;;;;8.30;1.60;;;6.30;99.90;;;;;;4879198;29;20061;-79
2023/04/12 01:05:20;;;;;;;7.00;1.85;;;6.30;99.90;;;;;;4878903;29;20082;-79
2023/04/12 01:08:00;;;;;;;8.37;1.53;;;6.30;99.90;;;;;;4878879;29;20406;-79
2023/04/12 01:10:59;;;;;;;7.20;1.90;;;6.30;99.90;;;;;;4878705;29;20046;-79
2023/04/12 01:13:36;;;;;;;7.07;1.88;;;6.30;99.90;;;;;;4859074;29;20129;-79
2023/04/12 01:16:13;;;;;;;7.80;1.90;;;6.30;99.90;;;;;;4876236;29;20053;-79
2023/04/12 01:18:44;;;;;;;10.43;1.70;;;6.40;99.90;;;;;;4875681;29;20050;-79
2023/04/12 01:21:23;;;;;;;9.80;2.20;;;6.40;99.90;;;;;;4845593;29;20072;-79
2023/04/12 01:24:22;;;;;;;7.45;1.95;;;6.40;99.90;;;;;;4860332;29;20201;-79
2023/04/12 01:26:50;;;;;;;7.47;2.30;;;6.40;99.90;;;;;;4871469;29;20398;-79
2023/04/12 01:29:21;;;;;;;5.32;1.48;;;6.50;99.90;;;;;;4882837;29;20048;-79
2023/04/12 01:31:56;;;;;;;5.60;1.90;;;6.50;99.90;;;;;;4878364;29;20041;-79
2023/04/12 01:34:26;;;;;;;6.63;1.83;;;6.50;99.90;;;;;;4878580;29;20511;-79
2023/04/12 01:36:54;;;;;;;8.80;1.75;;;6.50;99.90;;;;;;4878434;29;20048;-79
2023/04/12 01:39:21;;;;;;;8.38;1.98;;;6.50;99.90;;;;;;4878197;29;20046;-79
2023/04/12 01:41:47;;;;;;;7.07;1.88;;;6.60;99.90;;;;;;4878156;29;20502;-79
2023/04/12 01:44:17;;;;;;;9.05;1.77;;;6.60;99.90;;;;;;4878540;29;20463;-79
2023/04/12 01:46:46;;;;;;;6.22;1.85;;;6.60;99.90;;;;;;4877630;29;20144;-79
2023/04/12 01:49:14;;;;;;;9.57;2.03;;;6.60;99.90;;;;;;4878561;29;20110;-79
2023/04/12 01:51:57;;;;;;;8.23;2.25;;;6.60;99.90;;;;;;4878126;29;20125;-79
2023/04/12 01:54:26;;;;;;;7.70;2.05;;;6.60;99.90;;;;;;4893292;29;20041;-79
2023/04/12 01:56:57;;;;;;;6.43;1.67;;;6.70;99.90;;;;;;4878030;29;20542;-79
2023/04/12 01:59:44;;;;;;;8.75;1.83;;;6.70;99.90;;;;;;4893610;29;20406;-79
2023/04/12 02:02:12;;;;;;;6.25;1.65;;;6.70;99.90;;;;;;4862145;29;20144;-79
2023/04/12 02:04:40;;;;;;;9.52;1.80;;;6.70;99.90;;;;;;4878011;29;20045;-79
2023/04/12 02:07:08;;;;;;;11.30;2.20;;;6.70;99.90;;;;;;4862855;29;20045;-79
2023/04/12 02:09:40;;;;;;;8.43;2.33;;;6.80;99.90;;;;;;4877875;29;20447;-79
2023/04/12 02:12:08;;;;;;;6.97;1.80;;;6.70;99.90;;;;;;4862243;29;20045;-79
2023/04/12 02:14:35;;;;;;;4.50;1.75;;;6.80;99.90;;;;;;4862646;29;20068;-79
2023/04/12 02:17:03;;;;;;;8.60;2.03;;;6.80;99.90;;;;;;4861898;29;20144;-79
2023/04/12 02:19:31;;;;;;;6.75;2.10;;;6.80;99.90;;;;;;4862921;29;20080;-79
2023/04/12 02:21:57;;;;;;;10.18;2.13;;;6.90;99.90;;;;;;4862576;29;20139;-79
2023/04/12 02:24:24;;;;;;;7.82;2.10;;;6.90;99.90;;;;;;4862892;29;20899;-79
2023/04/12 02:26:51;;;;;;;6.30;2.20;;;6.80;99.90;;;;;;4862254;29;20072;-79
2023/04/12 02:29:17;;;;;;;6.95;1.70;;;6.90;99.90;;;;;;4877593;29;20554;-79
2023/04/12 02:31:45;;;;;;;8.82;2.20;;;6.90;99.90;;;;;;4862326;29;20046;-79
2023/04/12 02:34:12;;;;;;;5.30;1.98;;;6.90;99.90;;;;;;4877565;29;20414;-79
2023/04/12 02:36:38;;;;;;;6.90;2.40;;;6.90;99.90;;;;;;4877559;29;20042;-79
2023/04/12 02:39:06;;;;;;;7.68;2.65;;;7.00;99.90;;;;;;4861931;29;20109;-79
2023/04/12 02:41:33;;;;;;;8.75;2.10;;;7.00;99.90;;;;;;4874147;29;20490;-79
2023/04/12 02:43:59;;;;;;;5.82;2.03;;;7.00;99.90;;;;;;4843874;29;20091;-78
2023/04/12 02:46:27;;;;;;;12.93;2.35;;;7.00;99.90;;;;;;4843885;29;20062;-79
2023/04/12 02:48:54;;;;;;;8.38;2.42;;;7.10;99.90;;;;;;4859172;29;20046;-79
2023/04/12 02:51:20;;;;;;;7.90;2.55;;;7.00;99.90;;;;;;4845391;29;20045;-79
2023/04/12 02:53:47;;;;;;;9.07;2.20;;;7.10;99.90;;;;;;4862156;29;20038;-79
2023/04/12 02:56:17;;;;;;;10.23;2.45;;;7.10;99.90;;;;;;4877059;29;20562;-79
2023/04/12 02:58:44;;;;;;;9.45;2.50;;;7.10;99.90;;;;;;4877755;29;20045;-79
2023/04/12 03:01:12;;;;;;;8.07;2.17;;;7.10;99.90;;;;;;4862151;29;20045;-79
2023/04/12 03:03:38;;;;;;;4.93;1.90;;;7.10;99.90;;;;;;4858863;29;20042;-79
2023/04/12 03:06:08;;;;;;;8.95;2.30;;;7.10;99.90;;;;;;4876745;29;20057;-79
2023/04/12 03:08:35;;;;;;;9.82;2.63;;;7.10;99.90;;;;;;4876886;29;20055;-79
2023/04/12 03:11:01;;;;;;;9.77;2.45;;;7.20;99.90;;;;;;4861673;29;20476;-79
2023/04/12 03:13:28;;;;;;;8.52;2.58;;;7.20;99.90;;;;;;4861493;29;20064;-79
2023/04/12 03:15:57;;;;;;;7.00;2.17;;;7.20;99.90;;;;;;4891679;29;20041;-79
2023/04/12 03:18:23;;;;;;;10.85;2.75;;;7.20;99.90;;;;;;4876904;29;20521;-79
2023/04/12 03:20:53;;;;;;;6.93;2.20;;;7.20;99.90;;;;;;4876956;29;20053;-79
2023/04/12 03:23:20;;;;;;;8.00;2.75;;;7.20;99.90;;;;;;4861958;29;20514;-79
2023/04/12 03:25:47;;;;;;;8.70;2.88;;;7.10;99.90;;;;;;4861797;29;20092;-79
2023/04/12 03:28:14;;;;;;;6.68;2.75;;;7.10;99.90;;;;;;4876516;29;20089;-79
2023/04/12 03:30:40;;;;;;;14.13;2.55;;;7.10;99.90;;;;;;4846558;29;20084;-79
2023/04/12 03:33:07;;;;;;;7.38;2.10;;;7.20;99.90;;;;;;4876567;29;20048;-79
2023/04/12 03:35:34;;;;;;;8.90;2.90;;;7.20;99.90;;;;;;4876863;29;20042;-79
2023/04/12 03:38:00;;;;;;;8.32;2.60;;;7.20;99.90;;;;;;4861473;29;20037;-79
2023/04/12 03:40:27;;;;;;;7.53;2.75;;;7.20;99.90;;;;;;4861775;29;20494;-79
2023/04/12 03:42:54;;;;;;;9.55;2.92;;;7.30;99.90;;;;;;4876935;29;20503;-79
2023/04/12 03:45:21;;;;;;;9.30;2.42;;;7.30;99.90;;;;;;4876602;29;20057;-79
2023/04/12 03:47:48;;;;;;;8.60;2.30;;;7.30;99.90;;;;;;4861422;29;20138;-79
2023/04/12 03:50:14;;;;;;;6.43;2.10;;;7.30;99.90;;;;;;4876290;29;20046;-79
2023/04/12 03:52:41;;;;;;;5.53;1.98;;;7.30;99.90;;;;;;4861797;29;20390;-79
2023/04/12 03:55:08;;;;;;;10.20;3.00;;;7.40;99.90;;;;;;4861504;29;20045;-79
2023/04/12 03:57:35;;;;;;;7.63;2.55;;;7.40;99.90;;;;;;4861243;29;20049;-79
2023/04/12 04:00:02;;;;;;;6.80;2.15;;;7.40;99.90;;;;;;4861185;29;20045;-79
2023/04/12 04:02:30;;;;;;;5.57;2.20;;;7.40;99.90;;;;;;4876774;29;20046;-79
2023/04/12 04:04:57;;;;;;;8.02;2.25;;;7.50;99.90;;;;;;4861754;29;20083;-79
2023/04/12 04:07:23;;;;;;;6.10;2.40;;;7.40;99.90;;;;;;4872944;29;20069;-79
2023/04/12 04:09:50;;;;;;;10.73;2.47;;;7.40;99.90;;;;;;4843176;29;20137;-79
2023/04/12 04:12:17;;;;;;;8.93;2.50;;;7.40;99.90;;;;;;4843157;29;20098;-79
2023/04/12 04:14:44;;;;;;;11.80;3.00;;;7.40;99.90;;;;;;4858379;29;20037;-79
2023/04/12 04:17:10;;;;;;;11.40;3.58;;;7.40;99.90;;;;;;4842948;29;20045;-79
2023/04/12 04:19:37;;;;;;;9.68;2.85;;;7.30;99.90;;;;;;4858022;29;20555;-79
2023/04/12 04:22:04;;;;;;;7.82;2.67;;;7.40;99.90;;;;;;4857731;29;20045;-79
2023/04/12 04:24:33;;;;;;;8.68;2.75;;;7.40;99.90;;;;;;4858325;29;20526;-79
2023/04/12 04:26:59;;;;;;;6.55;2.38;;;7.30;99.90;;;;;;4863220;29;20128;-79
2023/04/12 04:29:27;;;;;;;6.18;2.50;;;7.30;99.90;;;;;;4861091;29;20050;-79
2023/04/12 04:31:56;;;;;;;9.32;2.53;;;7.40;99.90;;;;;;4861154;29;20064;-79
2023/04/12 04:34:24;;;;;;;11.50;2.50;;;7.30;99.90;;;;;;4893113;29;20498;-79
2023/04/12 04:36:51;;;;;;;8.88;2.42;;;7.30;99.90;;;;;;4877747;29;20049;-79
2023/04/12 04:39:18;;;;;;;7.72;2.40;;;7.40;99.90;;;;;;4861100;29;20046;-79
2023/04/12 04:41:45;;;;;;;9.27;3.28;;;7.30;99.90;;;;;;4863919;29;20063;-79
2023/04/12 04:44:12;;;;;;;10.88;3.08;;;7.30;99.90;;;;;;4849184;29;20086;-79
2023/04/12 04:46:39;;;;;;;10.43;2.65;;;7.30;99.90;;;;;;4879262;29;20131;-79
2023/04/12 04:49:05;;;;;;;7.70;2.55;;;7.30;99.90;;;;;;4860381;29;20064;-79
2023/04/12 04:51:32;;;;;;;9.32;2.38;;;7.30;99.90;;;;;;4860226;29;20129;-79
2023/04/12 04:53:59;;;;;;;8.57;2.85;;;7.30;99.90;;;;;;4845257;29;20065;-79
2023/04/12 04:56:26;;;;;;;5.05;2.28;;;7.20;99.90;;;;;;4860369;29;20488;-79
2023/04/12 04:58:53;;;;;;;10.90;2.65;;;7.30;99.90;;;;;;4865410;29;20053;-79
2023/04/12 05:01:24;;;;;;;8.07;2.60;;;7.10;99.90;;;;;;4875589;29;20042;-79
2023/04/12 05:03:51;;;;;;;9.23;3.00;;;7.20;99.90;;;;;;4860566;29;20419;-79
2023/04/12 05:06:17;;;;;;;6.00;1.98;;;7.10;99.90;;;;;;4860352;29;20057;-79
2023/04/12 05:08:44;;;;;;;5.05;2.28;;;7.10;99.90;;;;;;4863741;29;20045;-79
2023/04/12 05:11:11;;;;;;;5.60;2.20;;;7.10;99.90;;;;;;4863404;29;20046;-79
2023/04/12 05:13:37;;;;;;;9.70;2.50;;;7.10;99.90;;;;;;4848922;29;20094;-80
2023/04/12 05:16:06;;;;;;;8.20;2.42;;;7.10;99.90;;;;;;4848694;29;20124;-80
2023/04/12 05:18:33;;;;;;;6.05;2.00;;;7.10;99.90;;;;;;4849317;29;20410;-80
2023/04/12 05:21:04;;;;;;;7.25;2.35;;;7.10;99.90;;;;;;4860698;29;20046;-80
2023/04/12 05:23:42;;;;;;;6.90;2.10;;;7.10;99.90;;;;;;4860728;29;20057;-80
2023/04/12 05:26:08;;;;;;;6.07;2.10;;;7.00;99.90;;;;;;4882737;29;20516;-79
2023/04/12 05:28:35;;;;;;;6.47;2.13;;;7.00;99.90;;;;;;4861373;29;20049;-79
2023/04/12 05:31:02;;;;;;;6.20;2.35;;;7.00;99.90;;;;;;4871061;29;20045;-80
2023/04/12 05:33:30;;;;;;;7.28;2.10;;;7.00;99.90;;;;;;4902326;29;20097;-80
2023/04/12 05:35:57;;;;;;;4.35;1.80;;;7.00;99.90;;;;;;4859441;29;20086;-80
2023/04/12 05:38:23;;;;;;;8.35;2.30;;;7.00;99.90;;;;;;4912103;29;20068;-79
2023/04/12 05:40:50;;;;;;;8.40;2.10;;;7.00;99.90;;;;;;4861111;29;20430;-80
2023/04/12 05:43:17;;;;;;;5.72;2.00;;;7.10;99.90;;;;;;4863070;29;20045;-80
2023/04/12 05:45:44;;;;;;;4.10;1.73;;;7.00;99.90;;;;;;4878054;29;20478;-80
2023/04/12 05:48:10;;;;;;;8.48;2.10;;;7.10;99.90;;;;;;4863392;29;20502;-80
2023/04/12 05:50:37;;;;;;;11.05;2.33;;;7.10;99.90;;;;;;4862781;29;20046;-80
2023/04/12 05:53:04;;;;;;;7.57;2.03;;;7.10;99.90;;;;;;4894215;29;20073;-80
2023/04/12 05:55:31;;;;;;;4.93;1.90;;;7.10;99.90;;;;;;4878485;29;20041;-80
2023/04/12 05:57:58;;;;;;;6.38;1.85;;;7.10;99.90;;;;;;4847934;29;20037;-80
2023/04/12 06:00:25;;;;;;;5.38;1.60;;;7.10;99.90;;;;;;4879657;29;20052;-79
2023/04/12 06:02:51;;;;;;;8.18;1.92;;;7.10;99.90;;;;;;4859799;29;20046;-80
2023/04/12 06:05:18;;;;;;;6.88;2.00;;;7.10;99.90;;;;;;4859767;29;20117;-80
2023/04/12 06:07:48;;;;;;;7.38;2.00;;;7.10;99.90;;;;;;4874907;29;20057;-80
2023/04/12 06:10:16;;;;;;;5.97;1.83;;;7.10;99.90;;;;;;4859804;29;20206;-80
2023/04/12 06:12:43;;;;;;;8.95;1.80;;;7.10;99.90;;;;;;4869108;29;20415;-80
2023/04/12 06:15:10;;;;;;;7.40;2.00;;;7.20;99.90;;;;;;4878261;29;20048;-80
2023/04/12 06:17:37;;;;;;;10.85;1.98;;;7.10;99.90;;;;;;4862905;29;20045;-80
2023/04/12 06:20:08;;;;;;;8.65;2.22;;;7.20;99.90;;;;;;4863207;29;20050;-80
2023/04/12 06:22:36;;;;;;;6.43;2.20;;;7.20;99.90;;;;;;4863293;29;20053;-81
2023/04/12 06:25:03;;;;;;;5.60;1.75;;;7.20;99.90;;;;;;4862578;29;20052;-80
2023/04/12 06:27:30;;;;;;;7.25;2.00;;;7.20;99.90;;;;;;4877439;29;20056;-80
2023/04/12 06:29:57;;;;;;;8.55;1.80;;;7.20;99.90;;;;;;4877531;29;20049;-80
2023/04/12 06:32:24;;;;;;;8.82;2.13;;;7.10;99.90;;;;;;4877368;29;20041;-80
2023/04/12 06:34:51;;;;;;;3.60;1.67;;;7.20;99.90;;;;;;4859717;29;20045;-80
2023/04/12 06:37:18;;;;;;;6.30;2.08;;;7.20;99.90;;;;;;4859314;29;20042;-80
2023/04/12 06:39:45;;;;;;;5.35;1.90;;;7.20;99.90;;;;;;4859004;29;20048;-80
2023/04/12 06:42:12;;;;;;;5.22;1.88;;;7.20;99.90;;;;;;4859324;29;20590;-80
2023/04/12 06:44:39;;;;;;;6.45;2.05;;;7.20;99.90;;;;;;4855794;29;20049;-80
2023/04/12 06:47:05;;;;;;;5.85;2.00;;;7.20;99.90;;;;;;4862463;29;20076;-80
2023/04/12 06:49:32;;;;;;;5.32;1.90;;;7.20;99.90;;;;;;4877123;29;20105;-80
2023/04/12 06:51:59;;;;;;;5.82;1.80;;;7.20;99.90;;;;;;4862015;29;20041;-80
2023/04/12 06:54:26;;;;;;;5.63;2.00;;;7.20;99.90;;;;;;4876922;29;20053;-80
2023/04/12 06:56:52;;;;;;;5.63;1.88;;;7.20;99.90;;;;;;4877449;29;20037;-80
2023/04/12 06:59:20;;;;;;;7.47;2.03;;;7.20;99.90;;;;;;4847137;29;20506;-80
2023/04/12 07:01:46;;;;;;;6.45;1.95;;;7.20;99.90;;;;;;4861993;29;20053;-80
2023/04/12 07:04:13;;;;;;;5.65;1.60;;;7.20;99.90;;;;;;4846374;29;20053;-80
2023/04/12 07:06:41;;;;;;;7.32;2.08;;;7.20;99.90;;;;;;4858606;29;20050;-80
2023/04/12 07:09:08;;;;;;;4.80;2.20;;;7.20;99.90;;;;;;4844123;29;20137;-80
2023/04/12 07:11:34;;;;;;;5.57;2.47;;;7.30;99.90;;;;;;4843570;29;20133;-80
2023/04/12 07:14:01;;;;;;;7.07;2.40;;;7.20;99.90;;;;;;4858747;29;20064;-80
2023/04/12 07:16:30;;;;;;;5.32;1.70;;;7.20;99.90;;;;;;4847532;29;20467;-80
2023/04/12 07:18:57;;;;;;;9.55;2.42;;;7.20;99.90;;;;;;4880227;29;20050;-80
2023/04/12 07:21:24;;;;;;;8.40;2.60;;;7.20;99.90;;;;;;4884751;29;20120;-79
2023/04/12 07:23:51;;;;;;;12.43;2.00;;;7.20;99.90;;;;;;4876374;29;20128;-80
2023/04/12 07:26:18;;;;;;;5.95;1.98;;;7.20;99.90;;;;;;4876405;29;20045;-80
2023/04/12 07:28:44;;;;;;;4.25;1.90;;;7.30;99.90;;;;;;4861693;29;20041;-80
2023/04/12 07:31:11;;;;;;;7.55;2.08;;;7.30;99.90;;;;;;4876456;29;20041;-79
2023/04/12 07:33:39;;;;;;;8.68;1.58;;;7.20;99.90;;;;;;4891619;29;20041;-80
2023/04/12 07:36:06;;;;;;;6.50;1.80;;;7.30;99.90;;;;;;4861669;29;20059;-80
2023/04/12 07:38:33;;;;;;;7.72;2.00;;;7.30;99.90;;;;;;4874105;29;20037;-80
2023/04/12 07:41:00;;;;;;;5.35;1.90;;;7.30;99.90;;;;;;4880168;29;20056;-81
2023/04/12 07:43:26;;;;;;;7.32;1.85;;;7.30;99.90;;;;;;4895340;29;20140;-80
2023/04/12 07:45:55;;;;;;;7.75;2.20;;;7.30;99.90;;;;;;4895633;29;20041;-80
2023/04/12 07:48:21;;;;;;;5.95;2.20;;;7.40;99.90;;;;;;4899814;29;20085;-81
2023/04/12 07:50:49;;;;;;;7.55;2.10;;;7.40;99.90;;;;;;4876748;29;20153;-80
2023/04/12 07:53:27;;;;;;;5.32;2.22;;;7.40;99.90;;;;;;4877074;29;20064;-80
2023/04/12 07:55:55;;;;;;;6.90;2.10;;;7.40;99.90;;;;;;4876318;29;20400;-80
2023/04/12 07:58:23;;;;;;;8.25;3.20;;;7.40;99.90;;;;;;4876791;29;20128;-80
2023/04/12 08:00:51;;;;;;;6.45;2.10;;;7.40;99.90;;;;;;4861107;29;20170;-80
2023/04/12 08:03:18;;;;;;;10.57;2.30;;;7.40;99.90;;;;;;4894961;29;20052;-80
2023/04/12 08:05:45;;;;;;;6.95;2.40;;;7.40;99.90;;;;;;4900261;29;20069;-80
2023/04/12 08:08:13;;;;;;;7.28;2.50;;;7.40;99.90;;;;;;4876763;29;20046;-80
2023/04/12 08:10:40;;;;;;;7.93;2.28;;;7.40;99.90;;;;;;4861084;29;20101;-79
2023/04/12 08:13:07;;;;;;;5.13;2.33;;;7.40;99.90;;;;;;4863536;29;20137;-80
2023/04/12 08:15:34;;;;;;;9.27;2.17;;;7.50;99.90;;;;;;4881482;29;20406;-81
2023/04/12 08:18:01;;;;;;;7.18;2.35;;;7.40;99.90;;;;;;4888321;29;20116;-80
2023/04/12 08:20:28;;;;;;;7.88;2.17;;;7.50;99.90;;;;;;4884277;29;20046;-80
2023/04/12 08:22:55;;;;;;;5.07;1.98;;;7.40;99.90;;;;;;4869649;29;20148;-80
2023/04/12 08:25:21;;;;;;;5.43;2.33;;;7.40;99.90;;;;;;4889837;29;20044;-80
2023/04/12 08:27:50;;;;;;;5.22;2.17;;;7.40;99.90;;;;;;4871665;29;20128;-80
2023/04/12 08:30:17;;;;;;;6.32;2.60;;;7.50;99.90;;;;;;4899866;29;20117;-80
2023/04/12 08:32:44;;;;;;;4.88;2.40;;;7.50;99.90;;;;;;4892465;29;20042;-80
2023/04/12 08:35:11;;;;;;;7.75;2.55;;;7.50;99.90;;;;;;4875330;29;20460;-80
2023/04/12 08:37:38;;;;;;;4.90;2.10;;;7.50;99.90;;;;;;4865195;29;20041;-80
2023/04/12 08:40:08;;;;;;;6.20;2.45;;;7.50;99.90;;;;;;4869217;29;20814;-80
2023/04/12 08:42:36;;;;;;;4.68;2.42;;;7.60;99.90;;;;;;4873120;29;20053;-80
2023/04/12 08:45:08;;;;;;;5.70;2.30;;;7.50;99.90;;;;;;4876964;29;20451;-80
2023/04/12 08:47:38;;;;;;;9.40;2.50;;;7.60;99.90;;;;;;4884017;29;20052;-80
2023/04/12 08:50:08;;;;;;;4.82;2.55;;;7.60;99.90;;;;;;4900450;29;20046;-80
2023/04/12 08:52:36;;;;;;;4.25;2.50;;;7.70;99.90;;;;;;4885840;29;20120;-80
2023/04/12 08:55:07;;;;;;;6.60;2.42;;;7.70;99.90;;;;;;4879940;29;20045;-80
2023/04/12 08:57:35;;;;;;;5.15;2.47;;;7.70;99.90;;;;;;4864939;29;20475;-80
2023/04/12 09:00:03;;;;;;;7.55;2.60;;;7.80;99.90;;;;;;4897456;29;20124;-81
2023/04/12 09:02:30;;;;;;;7.82;2.80;;;7.80;99.90;;;;;;4883034;29;20073;-80
2023/04/12 09:04:57;;;;;;;4.70;2.22;;;7.80;99.90;;;;;;4858602;29;20453;-80
2023/04/12 09:07:27;;;;;;;4.45;2.30;;;7.90;99.90;;;;;;4896671;29;20037;-81
2023/04/12 09:09:55;;;;;;;5.80;2.50;;;8.00;99.90;;;;;;4866193;29;20143;-81
2023/04/12 09:12:23;;;;;;;4.20;2.50;;;8.10;99.90;;;;;;4868355;29;20402;-80
2023/04/12 09:15:11;;;;;;;4.78;2.40;;;8.20;99.90;;;;;;4867215;29;20102;-80
2023/04/12 09:17:39;;;;;;;6.55;2.30;;;8.20;99.90;;;;;;4890648;29;20037;-80
2023/04/12 09:20:15;;;;;;;4.53;2.30;;;8.30;99.90;;;;;;4880928;29;20041;-80
2023/04/12 09:22:44;;;;;;;4.90;2.10;;;8.30;99.90;;;;;;4878716;29;20390;-80
2023/04/12 09:25:11;;;;;;;7.00;2.60;;;8.30;99.90;;;;;;4864124;29;20049;-80
2023/04/12 09:27:53;;;;;;;4.88;2.13;;;8.40;99.90;;;;;;4894542;29;20132;-80
2023/04/12 09:30:19;;;;;;;4.50;2.00;;;8.40;99.90;;;;;;4895346;29;20049;-80
2023/04/12 09:32:48;;;;;;;5.65;2.20;;;8.40;99.90;;;;;;4879065;29;20043;-80
2023/04/12 09:35:15;;;;;;;3.65;2.03;;;8.30;99.90;;;;;;4887015;29;20052;-80
2023/04/12 09:37:41;;;;;;;7.10;2.50;;;8.30;99.90;;;;;;4887257;29;20547;-80
2023/04/12 09:40:09;;;;;;;6.82;2.47;;;8.30;99.90;;;;;;4863850;29;20045;-81
2023/04/12 09:42:54;;;;;;;3.88;2.22;;;8.30;99.90;;;;;;4897027;29;20049;-81
2023/04/12 09:45:24;;;;;;;3.67;2.13;;;8.30;99.90;;;;;;4898291;29;20110;-80
2023/04/12 09:47:52;;;;;;;3.55;1.85;;;8.30;99.90;;;;;;4880883;29;20117;-80
2023/04/12 09:50:21;;;;;;;24.45;15.57;;;8.30;99.90;;;;;;4865147;29;20046;-80
2023/04/12 09:52:48;;;;;;;42.95;24.60;;;8.30;99.90;;;;;;4879237;29;20041;-80
2023/04/12 09:55:17;;;;;;;19.92;12.65;;;8.20;99.90;;;;;;4879691;29;20190;-80
2023/04/12 09:57:44;;;;;;;13.00;10.48;;;8.30;99.90;;;;;;4894798;29;20042;-80
2023/04/12 10:00:16;;;;;;;215.05;117.72;;;8.20;99.90;;;;;;4880781;29;20045;-80
2023/04/12 10:02:50;;;;;;;45.78;25.42;;;8.20;99.90;;;;;;4870817;29;20132;-80
2023/04/12 10:05:19;;;;;;;51.08;31.60;;;8.30;99.90;;;;;;4877153;29;20147;-80
2023/04/12 10:07:46;;;;;;;12.13;6.82;;;8.30;99.90;;;;;;4885580;29;20189;-80
2023/04/12 10:10:15;;;;;;;65.25;37.80;;;8.40;99.90;;;;;;4878902;29;20406;-80
2023/04/12 10:12:44;;;;;;;22.95;13.10;;;8.40;99.90;;;;;;4881473;29;20064;-80
2023/04/12 10:15:12;;;;;;;60.45;33.47;;;8.50;99.90;;;;;;4886233;29;20497;-80
2023/04/12 10:17:48;;;;;;;64.18;37.50;;;8.60;99.90;;;;;;4886339;29;20150;-80
2023/04/12 10:20:16;;;;;;;19.50;11.52;;;8.70;99.90;;;;;;4897588;29;20414;-80
2023/04/12 10:22:44;;;;;;;14.30;10.10;;;8.90;99.90;;;;;;4866268;29;20052;-80
2023/04/12 10:25:17;;;;;;;26.58;20.35;;;8.90;99.90;;;;;;4900818;29;20041;-80
2023/04/12 10:27:46;;;;;;;16.58;12.55;;;9.10;99.90;;;;;;4885479;29;20119;-80
2023/04/12 10:30:20;;;;;;;18.95;15.40;;;9.10;99.90;;;;;;4888487;29;20883;-80
2023/04/12 10:32:47;;;;;;;20.95;16.95;;;9.30;99.90;;;;;;4880396;29;20498;-80
2023/04/12 10:35:15;;;;;;;10.40;8.07;;;9.30;99.90;;;;;;4876967;29;20983;-80
2023/04/12 10:38:01;;;;;;;13.70;9.70;;;9.50;99.90;;;;;;4887447;29;20168;-80
2023/04/12 10:40:30;;;;;;;;;;;9.50;99.90;;;;;;4884032;29;20426;-80
2023/04/12 10:43:21;;;;;;;10.70;7.90;;;9.70;99.90;;;;;;4879594;29;19920;-80
2023/04/12 10:45:49;;;;;;;13.10;9.10;;;9.80;99.90;;;;;;4877195;29;20041;-80
2023/04/12 10:48:29;;;;;;;23.25;14.70;;;9.80;99.90;;;;;;4900252;29;20072;-80
2023/04/12 10:51:24;;;;;;;7.10;4.65;;;10.00;99.90;;;;;;4872723;29;20735;-80
2023/04/12 10:53:52;;;;;;;7.90;5.25;;;10.20;99.90;;;;;;4897367;29;20053;-80
2023/04/12 10:56:30;;;;;;;11.10;7.20;;;10.40;99.90;;;;;;4887378;29;20051;-80
2023/04/12 10:59:01;;;;;;;22.15;15.90;;;10.80;99.90;;;;;;4884989;29;20052;-80
2023/04/12 11:01:30;;;;;;;7.80;5.72;;;11.00;99.90;;;;;;4864825;29;20045;-80
2023/04/12 11:04:19;;;;;;;7.00;4.30;;;11.20;99.90;;;;;;4864941;29;20037;-80
2023/04/12 11:06:51;;;;;;;8.73;5.93;;;11.20;99.90;;;;;;4865664;29;20041;-80
2023/04/12 11:09:27;;;;;;;26.30;16.00;;;11.30;99.90;;;;;;4885025;29;20037;-80
2023/04/12 11:12:14;;;;;;;14.23;7.97;;;11.20;99.90;;;;;;4892821;29;20055;-81
2023/04/12 11:14:49;;;;;;;22.80;12.25;;;11.30;99.90;;;;;;4893296;29;20041;-81
2023/04/12 11:17:15;;;;;;;16.42;9.68;;;11.40;99.90;;;;;;4873048;29;20455;-80
2023/04/12 11:19:56;;;;;;;21.52;11.23;;;11.50;99.90;;;;;;4903546;29;20133;-80
2023/04/12 11:22:26;;;;;;;37.55;15.27;;;11.60;99.90;;;;;;4884283;29;20037;-80
2023/04/12 11:24:55;;;;;;;12.63;5.18;;;11.70;99.90;;;;;;4889806;29;20041;-81
2023/04/12 11:27:23;;;;;;;6.28;3.80;;;11.60;99.90;;;;;;4910828;29;20109;-80
2023/04/12 11:29:54;;;;;;;6.75;3.30;;;11.60;99.90;;;;;;4862161;29;20057;-80
2023/04/12 11:32:23;;;;;;;6.97;3.85;;;11.70;99.90;;;;;;4895029;29;20127;-80
2023/04/12 11:34:50;;;;;;;6.60;3.03;;;11.70;99.90;;;;;;4911083;29;20106;-81
2023/04/12 11:37:19;;;;;;;4.75;3.10;;;11.70;99.90;;;;;;4884099;29;20399;-80
2023/04/12 11:39:47;;;;;;;20.38;11.23;;;11.60;99.90;;;;;;4904606;29;20118;-80
2023/04/12 11:42:16;;;;;;;40.35;18.52;;;11.70;99.90;;;;;;4872220;29;20083;-80
2023/04/12 11:44:44;;;;;;;31.17;14.57;;;11.90;99.90;;;;;;4880903;29;20052;-80
2023/04/12 11:47:20;;;;;;;16.42;7.80;;;11.80;99.90;;;;;;4900852;29;20132;-79
2023/04/12 11:49:49;;;;;;;29.13;18.58;;;11.90;99.90;;;;;;4902793;29;20044;-79
2023/04/12 11:52:18;;;;;;;9.93;3.40;;;12.10;99.90;;;;;;4888379;29;20045;-79
2023/04/12 11:54:49;;;;;;;7.43;2.40;;;12.30;99.90;;;;;;4874189;29;20546;-79
2023/04/12 11:57:18;;;;;;;6.13;3.22;;;12.30;99.90;;;;;;4889934;29;20485;-80
2023/04/12 11:59:46;;;;;;;9.43;5.28;;;12.20;99.90;;;;;;4892205;29;20037;-80
2023/04/12 12:02:15;;;;;;;8.65;3.00;;;12.20;99.90;;;;;;4900833;29;20069;-79
2023/04/12 12:04:44;;;;;;;7.45;2.50;;;12.10;99.90;;;;;;4889174;29;20049;-80
2023/04/12 12:07:12;;;;;;;7.03;3.10;;;12.00;99.90;;;;;;4890908;29;20128;-80
2023/04/12 12:09:40;;;;;;;11.13;2.88;;;12.00;99.90;;;;;;4879266;29;20045;-80
2023/04/12 12:12:09;;;;;;;8.88;2.42;;;12.10;99.90;;;;;;4885327;29;20488;-80
2023/04/12 12:14:36;;;;;;;8.43;2.97;;;12.20;99.90;;;;;;4870507;29;20104;-80
2023/04/12 12:17:13;;;;;;;9.90;2.30;;;12.30;99.90;;;;;;4871627;29;20064;-80
2023/04/12 12:19:42;;;;;;;4.95;2.20;;;12.50;99.90;;;;;;4908676;29;20107;-80
2023/04/12 12:22:16;;;;;;;6.40;2.67;;;12.60;99.90;;;;;;4874462;29;20046;-80
2023/04/12 12:24:52;;;;;;;5.32;2.10;;;12.80;99.90;;;;;;4893539;29;20159;-80
2023/04/12 12:27:31;;;;;;;9.27;2.40;;;12.90;99.90;;;;;;4908291;29;20098;-80
2023/04/12 12:30:03;;;;;;;10.20;2.38;;;12.80;99.90;;;;;;4886437;29;20135;-80
2023/04/12 12:32:35;;;;;;;8.80;2.30;;;12.70;99.90;;;;;;4882966;29;20521;-81
2023/04/12 12:35:10;;;;;;;10.38;2.22;;;12.70;99.90;;;;;;4864670;29;20041;-80
2023/04/12 12:37:47;;;;;;;7.15;2.38;;;12.60;99.90;;;;;;4890005;29;20048;-80
2023/04/12 12:40:15;;;;;;;7.03;2.20;;;12.80;99.90;;;;;;4886406;29;20040;-80
2023/04/12 12:42:47;;;;;;;6.63;2.40;;;13.00;99.90;;;;;;4854321;29;20499;-80
2023/04/12 12:45:15;;;;;;;13.23;2.38;;;13.00;99.90;;;;;;4887321;29;20037;-81
2023/04/12 12:47:54;;;;;;;7.97;2.30;;;12.80;99.90;;;;;;4906565;29;20458;-81
2023/04/12 12:50:23;;;;;;;11.05;2.40;;;12.80;99.90;;;;;;4887558;29;20041;-81
2023/04/12 12:52:50;;;;;;;7.05;2.03;;;12.80;99.90;;;;;;4884200;29;20410;-81
2023/04/12 12:55:17;;;;;;;8.50;2.67;;;12.70;99.90;;;;;;4864449;29;20037;-82
2023/04/12 12:57:47;;;;;;;9.02;2.00;;;12.60;99.90;;;;;;4879370;29;20041;-86
2023/04/12 13:00:15;;;;;;;7.80;2.15;;;12.50;99.90;;;;;;4863680;29;20041;-81
2023/04/12 13:02:42;;;;;;;7.97;2.03;;;12.40;99.90;;;;;;4878938;29;20049;-81